sensor_id;sensor_type;location;lat;lon;timestamp;P1;durP1;ratioP1;P2;durP2;ratioP2
51614;SDS011;37695;52.960;6.188;2023-05-20T00:00:51;8.68;;;4.10;;
51614;SDS011;37695;52.960;6.188;2023-05-20T00:03:17;8.48;;;4.13;;
51614;SDS011;37695;52.960;6.188;2023-05-20T00:05:44;11.15;;;4.82;;
51614;SDS011;37695;52.960;6.188;2023-05-20T00:08:10;8.77;;;4.38;;
51614;SDS011;37695;52.960;6.188;2023-05-20T00:10:35;13.50;;;4.32;;
51614;SDS011;37695;52.960;6.188;2023-05-20T00:13:01;10.40;;;4.38;;
51614;SDS011;37695;52.960;6.188;2023-05-20T00:15:27;8.13;;;4.22;;
51614;SDS011;37695;52.960;6.188;2023-05-20T00:17:53;11.15;;;4.50;;
51614;SDS011;37695;52.960;6.188;2023-05-20T00:20:19;7.82;;;4.43;;
51614;SDS011;37695;52.960;6.188;2023-05-20T00:22:45;9.07;;;4.20;;
51614;SDS011;37695;52.960;6.188;2023-05-20T00:25:10;11.45;;;5.07;;
51614;SDS011;37695;52.960;6.188;2023-05-20T00:27:38;8.55;;;4.13;;
51614;SDS011;37695;52.960;6.188;2023-05-20T00:30:04;7.05;;;4.20;;
51614;SDS011;37695;52.960;6.188;2023-05-20T00:32:31;9.15;;;4.00;;
51614;SDS011;37695;52.960;6.188;2023-05-20T00:34:57;9.85;;;4.72;;
51614;SDS011;37695;52.960;6.188;2023-05-20T00:37:23;8.27;;;4.03;;
51614;SDS011;37695;52.960;6.188;2023-05-20T00:39:49;9.98;;;4.60;;
51614;SDS011;37695;52.960;6.188;2023-05-20T00:42:25;9.38;;;4.25;;
51614;SDS011;37695;52.960;6.188;2023-05-20T00:44:52;10.18;;;4.10;;
51614;SDS011;37695;52.960;6.188;2023-05-20T00:47:19;9.48;;;4.72;;
51614;SDS011;37695;52.960;6.188;2023-05-20T00:49:46;8.52;;;4.07;;
51614;SDS011;37695;52.960;6.188;2023-05-20T00:52:13;7.53;;;4.00;;
51614;SDS011;37695;52.960;6.188;2023-05-20T00:54:40;9.32;;;4.53;;
51614;SDS011;37695;52.960;6.188;2023-05-20T00:57:06;10.75;;;5.05;;
51614;SDS011;37695;52.960;6.188;2023-05-20T00:59:34;9.90;;;4.50;;
51614;SDS011;37695;52.960;6.188;2023-05-20T01:02:01;8.90;;;4.55;;
51614;SDS011;37695;52.960;6.188;2023-05-20T01:04:30;12.90;;;4.90;;
51614;SDS011;37695;52.960;6.188;2023-05-20T01:06:56;9.70;;;4.85;;
51614;SDS011;37695;52.960;6.188;2023-05-20T01:09:26;12.38;;;4.57;;
51614;SDS011;37695;52.960;6.188;2023-05-20T01:11:58;7.93;;;4.20;;
51614;SDS011;37695;52.960;6.188;2023-05-20T01:14:35;9.13;;;4.40;;
51614;SDS011;37695;52.960;6.188;2023-05-20T01:17:04;9.93;;;4.30;;
51614;SDS011;37695;52.960;6.188;2023-05-20T01:19:36;7.13;;;4.18;;
51614;SDS011;37695;52.960;6.188;2023-05-20T01:22:06;11.15;;;4.90;;
51614;SDS011;37695;52.960;6.188;2023-05-20T01:24:36;9.40;;;4.60;;
51614;SDS011;37695;52.960;6.188;2023-05-20T01:27:09;9.43;;;4.32;;
51614;SDS011;37695;52.960;6.188;2023-05-20T01:29:37;10.60;;;4.53;;
51614;SDS011;37695;52.960;6.188;2023-05-20T01:32:05;7.88;;;4.00;;
51614;SDS011;37695;52.960;6.188;2023-05-20T01:34:34;10.57;;;4.13;;
51614;SDS011;37695;52.960;6.188;2023-05-20T01:37:03;9.40;;;4.75;;
51614;SDS011;37695;52.960;6.188;2023-05-20T01:39:31;8.80;;;4.35;;
51614;SDS011;37695;52.960;6.188;2023-05-20T01:41:58;8.88;;;4.68;;
51614;SDS011;37695;52.960;6.188;2023-05-20T01:44:26;8.30;;;4.47;;
51614;SDS011;37695;52.960;6.188;2023-05-20T01:46:52;8.45;;;4.43;;
51614;SDS011;37695;52.960;6.188;2023-05-20T01:49:18;8.57;;;4.70;;
51614;SDS011;37695;52.960;6.188;2023-05-20T01:51:43;6.97;;;4.22;;
51614;SDS011;37695;52.960;6.188;2023-05-20T01:54:09;10.55;;;4.75;;
51614;SDS011;37695;52.960;6.188;2023-05-20T01:56:34;9.93;;;4.10;;
51614;SDS011;37695;52.960;6.188;2023-05-20T01:59:00;9.93;;;4.07;;
51614;SDS011;37695;52.960;6.188;2023-05-20T02:01:26;7.53;;;3.95;;
51614;SDS011;37695;52.960;6.188;2023-05-20T02:03:51;11.02;;;4.15;;
51614;SDS011;37695;52.960;6.188;2023-05-20T02:06:17;6.38;;;3.65;;
51614;SDS011;37695;52.960;6.188;2023-05-20T02:08:42;8.73;;;5.20;;
51614;SDS011;37695;52.960;6.188;2023-05-20T02:11:08;8.38;;;4.57;;
51614;SDS011;37695;52.960;6.188;2023-05-20T02:13:33;8.63;;;4.20;;
51614;SDS011;37695;52.960;6.188;2023-05-20T02:15:59;11.13;;;4.72;;
51614;SDS011;37695;52.960;6.188;2023-05-20T02:18:24;9.00;;;4.43;;
51614;SDS011;37695;52.960;6.188;2023-05-20T02:20:50;7.35;;;4.22;;
51614;SDS011;37695;52.960;6.188;2023-05-20T02:23:16;7.40;;;3.80;;
51614;SDS011;37695;52.960;6.188;2023-05-20T02:25:42;9.27;;;4.13;;
51614;SDS011;37695;52.960;6.188;2023-05-20T02:28:08;7.32;;;4.40;;
51614;SDS011;37695;52.960;6.188;2023-05-20T02:30:35;8.40;;;4.70;;
51614;SDS011;37695;52.960;6.188;2023-05-20T02:33:01;9.95;;;4.45;;
51614;SDS011;37695;52.960;6.188;2023-05-20T02:35:27;9.13;;;4.18;;
51614;SDS011;37695;52.960;6.188;2023-05-20T02:37:53;7.63;;;4.50;;
51614;SDS011;37695;52.960;6.188;2023-05-20T02:40:18;8.13;;;4.68;;
51614;SDS011;37695;52.960;6.188;2023-05-20T02:42:44;7.30;;;4.25;;
51614;SDS011;37695;52.960;6.188;2023-05-20T02:45:10;10.10;;;4.50;;
51614;SDS011;37695;52.960;6.188;2023-05-20T02:47:36;9.73;;;4.72;;
51614;SDS011;37695;52.960;6.188;2023-05-20T02:50:01;7.90;;;4.05;;
51614;SDS011;37695;52.960;6.188;2023-05-20T02:52:27;9.52;;;4.20;;
51614;SDS011;37695;52.960;6.188;2023-05-20T02:54:53;8.35;;;4.50;;
51614;SDS011;37695;52.960;6.188;2023-05-20T02:57:18;9.38;;;4.10;;
51614;SDS011;37695;52.960;6.188;2023-05-20T02:59:44;8.20;;;3.83;;
51614;SDS011;37695;52.960;6.188;2023-05-20T03:02:10;8.65;;;3.95;;
51614;SDS011;37695;52.960;6.188;2023-05-20T03:04:35;7.32;;;4.05;;
51614;SDS011;37695;52.960;6.188;2023-05-20T03:07:04;10.60;;;4.70;;
51614;SDS011;37695;52.960;6.188;2023-05-20T03:09:31;7.75;;;4.07;;
51614;SDS011;37695;52.960;6.188;2023-05-20T03:11:57;6.93;;;4.22;;
51614;SDS011;37695;52.960;6.188;2023-05-20T03:14:22;8.05;;;3.80;;
51614;SDS011;37695;52.960;6.188;2023-05-20T03:16:48;8.05;;;4.13;;
51614;SDS011;37695;52.960;6.188;2023-05-20T03:19:13;7.35;;;3.97;;
51614;SDS011;37695;52.960;6.188;2023-05-20T03:21:40;7.22;;;4.05;;
51614;SDS011;37695;52.960;6.188;2023-05-20T03:24:07;7.65;;;4.10;;
51614;SDS011;37695;52.960;6.188;2023-05-20T03:26:34;10.05;;;3.83;;
51614;SDS011;37695;52.960;6.188;2023-05-20T03:29:01;9.10;;;4.03;;
51614;SDS011;37695;52.960;6.188;2023-05-20T03:31:27;6.80;;;4.03;;
51614;SDS011;37695;52.960;6.188;2023-05-20T03:33:53;7.60;;;4.43;;
51614;SDS011;37695;52.960;6.188;2023-05-20T03:36:18;8.63;;;4.30;;
51614;SDS011;37695;52.960;6.188;2023-05-20T03:38:44;7.95;;;3.90;;
51614;SDS011;37695;52.960;6.188;2023-05-20T03:41:10;8.07;;;4.30;;
51614;SDS011;37695;52.960;6.188;2023-05-20T03:43:35;8.75;;;4.15;;
51614;SDS011;37695;52.960;6.188;2023-05-20T03:46:01;7.53;;;4.10;;
51614;SDS011;37695;52.960;6.188;2023-05-20T03:48:26;6.72;;;4.03;;
51614;SDS011;37695;52.960;6.188;2023-05-20T03:50:52;6.40;;;3.92;;
51614;SDS011;37695;52.960;6.188;2023-05-20T03:53:18;8.32;;;4.03;;
51614;SDS011;37695;52.960;6.188;2023-05-20T03:55:44;7.15;;;4.60;;
51614;SDS011;37695;52.960;6.188;2023-05-20T03:58:10;7.40;;;4.00;;
51614;SDS011;37695;52.960;6.188;2023-05-20T04:00:37;7.90;;;4.38;;
51614;SDS011;37695;52.960;6.188;2023-05-20T04:03:03;8.60;;;4.05;;
51614;SDS011;37695;52.960;6.188;2023-05-20T04:05:29;7.22;;;4.25;;
51614;SDS011;37695;52.960;6.188;2023-05-20T04:07:55;7.20;;;3.85;;
51614;SDS011;37695;52.960;6.188;2023-05-20T04:10:21;7.40;;;4.32;;
51614;SDS011;37695;52.960;6.188;2023-05-20T04:12:47;6.53;;;3.78;;
51614;SDS011;37695;52.960;6.188;2023-05-20T04:15:13;6.60;;;3.50;;
51614;SDS011;37695;52.960;6.188;2023-05-20T04:17:38;5.75;;;4.10;;
51614;SDS011;37695;52.960;6.188;2023-05-20T04:20:05;10.32;;;3.92;;
51614;SDS011;37695;52.960;6.188;2023-05-20T04:22:31;8.75;;;3.80;;
51614;SDS011;37695;52.960;6.188;2023-05-20T04:24:57;6.90;;;3.85;;
51614;SDS011;37695;52.960;6.188;2023-05-20T04:27:23;6.65;;;3.75;;
51614;SDS011;37695;52.960;6.188;2023-05-20T04:29:50;8.25;;;3.67;;
51614;SDS011;37695;52.960;6.188;2023-05-20T04:32:17;7.32;;;4.30;;
51614;SDS011;37695;52.960;6.188;2023-05-20T04:34:43;7.63;;;3.33;;
51614;SDS011;37695;52.960;6.188;2023-05-20T04:37:12;7.05;;;3.33;;
51614;SDS011;37695;52.960;6.188;2023-05-20T04:39:38;5.90;;;3.45;;
51614;SDS011;37695;52.960;6.188;2023-05-20T04:42:04;6.30;;;3.20;;
51614;SDS011;37695;52.960;6.188;2023-05-20T04:44:30;9.45;;;3.67;;
51614;SDS011;37695;52.960;6.188;2023-05-20T04:46:56;7.82;;;3.78;;
51614;SDS011;37695;52.960;6.188;2023-05-20T04:49:22;6.30;;;3.55;;
51614;SDS011;37695;52.960;6.188;2023-05-20T04:51:50;6.18;;;3.63;;
51614;SDS011;37695;52.960;6.188;2023-05-20T04:54:15;8.82;;;3.60;;
51614;SDS011;37695;52.960;6.188;2023-05-20T04:56:42;5.45;;;3.42;;
51614;SDS011;37695;52.960;6.188;2023-05-20T04:59:08;8.80;;;3.67;;
51614;SDS011;37695;52.960;6.188;2023-05-20T05:01:34;5.25;;;3.30;;
51614;SDS011;37695;52.960;6.188;2023-05-20T05:04:00;8.73;;;3.42;;
51614;SDS011;37695;52.960;6.188;2023-05-20T05:06:26;11.23;;;3.85;;
51614;SDS011;37695;52.960;6.188;2023-05-20T05:08:52;5.85;;;3.00;;
51614;SDS011;37695;52.960;6.188;2023-05-20T05:11:17;6.22;;;3.72;;
51614;SDS011;37695;52.960;6.188;2023-05-20T05:13:43;6.07;;;3.20;;
51614;SDS011;37695;52.960;6.188;2023-05-20T05:16:09;6.93;;;3.78;;
51614;SDS011;37695;52.960;6.188;2023-05-20T05:18:35;6.43;;;3.38;;
51614;SDS011;37695;52.960;6.188;2023-05-20T05:21:04;6.35;;;3.00;;
51614;SDS011;37695;52.960;6.188;2023-05-20T05:23:30;7.03;;;2.92;;
51614;SDS011;37695;52.960;6.188;2023-05-20T05:25:57;7.45;;;3.67;;
51614;SDS011;37695;52.960;6.188;2023-05-20T05:28:23;6.55;;;3.28;;
51614;SDS011;37695;52.960;6.188;2023-05-20T05:30:49;7.47;;;3.17;;
51614;SDS011;37695;52.960;6.188;2023-05-20T05:33:15;6.72;;;3.20;;
51614;SDS011;37695;52.960;6.188;2023-05-20T05:35:41;5.55;;;3.03;;
51614;SDS011;37695;52.960;6.188;2023-05-20T05:38:07;5.72;;;2.85;;
51614;SDS011;37695;52.960;6.188;2023-05-20T05:40:33;5.70;;;2.80;;
51614;SDS011;37695;52.960;6.188;2023-05-20T05:42:59;5.22;;;2.78;;
51614;SDS011;37695;52.960;6.188;2023-05-20T05:45:24;7.68;;;3.05;;
51614;SDS011;37695;52.960;6.188;2023-05-20T05:47:50;5.40;;;2.70;;
51614;SDS011;37695;52.960;6.188;2023-05-20T05:50:15;5.20;;;2.65;;
51614;SDS011;37695;52.960;6.188;2023-05-20T05:52:41;5.70;;;2.60;;
51614;SDS011;37695;52.960;6.188;2023-05-20T05:55:07;6.25;;;2.75;;
51614;SDS011;37695;52.960;6.188;2023-05-20T05:57:33;6.25;;;2.53;;
51614;SDS011;37695;52.960;6.188;2023-05-20T05:59:59;5.05;;;2.67;;
51614;SDS011;37695;52.960;6.188;2023-05-20T06:02:25;4.88;;;2.35;;
51614;SDS011;37695;52.960;6.188;2023-05-20T06:04:51;5.47;;;2.38;;
51614;SDS011;37695;52.960;6.188;2023-05-20T06:07:16;5.60;;;2.63;;
51614;SDS011;37695;52.960;6.188;2023-05-20T06:09:42;4.22;;;2.65;;
51614;SDS011;37695;52.960;6.188;2023-05-20T06:12:08;3.45;;;2.30;;
51614;SDS011;37695;52.960;6.188;2023-05-20T06:14:34;4.25;;;2.60;;
51614;SDS011;37695;52.960;6.188;2023-05-20T06:17:00;3.55;;;2.25;;
51614;SDS011;37695;52.960;6.188;2023-05-20T06:19:26;3.47;;;2.30;;
51614;SDS011;37695;52.960;6.188;2023-05-20T06:21:51;4.93;;;2.10;;
51614;SDS011;37695;52.960;6.188;2023-05-20T06:24:17;5.28;;;2.33;;
51614;SDS011;37695;52.960;6.188;2023-05-20T06:26:42;6.13;;;2.60;;
51614;SDS011;37695;52.960;6.188;2023-05-20T06:29:09;4.93;;;2.83;;
51614;SDS011;37695;52.960;6.188;2023-05-20T06:31:35;4.45;;;2.30;;
51614;SDS011;37695;52.960;6.188;2023-05-20T06:34:01;7.07;;;2.40;;
51614;SDS011;37695;52.960;6.188;2023-05-20T06:36:27;4.18;;;1.98;;
51614;SDS011;37695;52.960;6.188;2023-05-20T06:38:54;4.65;;;1.98;;
51614;SDS011;37695;52.960;6.188;2023-05-20T06:41:19;3.72;;;2.22;;
51614;SDS011;37695;52.960;6.188;2023-05-20T06:43:46;5.22;;;1.95;;
51614;SDS011;37695;52.960;6.188;2023-05-20T06:46:12;4.15;;;1.88;;
51614;SDS011;37695;52.960;6.188;2023-05-20T06:48:37;3.67;;;1.92;;
51614;SDS011;37695;52.960;6.188;2023-05-20T06:51:05;3.20;;;2.10;;
51614;SDS011;37695;52.960;6.188;2023-05-20T06:53:33;2.90;;;1.73;;
51614;SDS011;37695;52.960;6.188;2023-05-20T06:55:59;4.28;;;2.05;;
51614;SDS011;37695;52.960;6.188;2023-05-20T06:58:24;6.53;;;2.17;;
51614;SDS011;37695;52.960;6.188;2023-05-20T07:00:50;4.05;;;1.70;;
51614;SDS011;37695;52.960;6.188;2023-05-20T07:03:15;5.65;;;2.10;;
51614;SDS011;37695;52.960;6.188;2023-05-20T07:05:41;2.83;;;1.80;;
51614;SDS011;37695;52.960;6.188;2023-05-20T07:08:07;4.35;;;2.15;;
51614;SDS011;37695;52.960;6.188;2023-05-20T07:10:32;3.42;;;1.85;;
51614;SDS011;37695;52.960;6.188;2023-05-20T07:12:58;3.53;;;1.95;;
51614;SDS011;37695;52.960;6.188;2023-05-20T07:15:24;2.85;;;1.60;;
51614;SDS011;37695;52.960;6.188;2023-05-20T07:17:49;3.72;;;1.88;;
51614;SDS011;37695;52.960;6.188;2023-05-20T07:20:15;3.38;;;1.70;;
51614;SDS011;37695;52.960;6.188;2023-05-20T07:22:41;2.85;;;1.83;;
51614;SDS011;37695;52.960;6.188;2023-05-20T07:25:08;4.40;;;2.00;;
51614;SDS011;37695;52.960;6.188;2023-05-20T07:27:34;3.05;;;1.90;;
51614;SDS011;37695;52.960;6.188;2023-05-20T07:29:59;3.38;;;1.70;;
51614;SDS011;37695;52.960;6.188;2023-05-20T07:32:25;4.88;;;2.35;;
51614;SDS011;37695;52.960;6.188;2023-05-20T07:34:50;5.65;;;1.65;;
51614;SDS011;37695;52.960;6.188;2023-05-20T07:37:16;3.80;;;1.98;;
51614;SDS011;37695;52.960;6.188;2023-05-20T07:39:42;3.13;;;1.70;;
51614;SDS011;37695;52.960;6.188;2023-05-20T07:42:07;5.75;;;1.80;;
51614;SDS011;37695;52.960;6.188;2023-05-20T07:44:33;4.47;;;1.70;;
51614;SDS011;37695;52.960;6.188;2023-05-20T07:46:58;3.70;;;1.75;;
51614;SDS011;37695;52.960;6.188;2023-05-20T07:49:24;2.25;;;1.65;;
51614;SDS011;37695;52.960;6.188;2023-05-20T07:51:50;2.33;;;1.50;;
51614;SDS011;37695;52.960;6.188;2023-05-20T07:54:16;2.20;;;1.60;;
51614;SDS011;37695;52.960;6.188;2023-05-20T07:56:41;2.92;;;1.55;;
51614;SDS011;37695;52.960;6.188;2023-05-20T07:59:07;2.97;;;1.52;;
51614;SDS011;37695;52.960;6.188;2023-05-20T08:01:32;3.05;;;1.60;;
51614;SDS011;37695;52.960;6.188;2023-05-20T08:03:58;2.50;;;1.50;;
51614;SDS011;37695;52.960;6.188;2023-05-20T08:06:24;4.60;;;1.83;;
51614;SDS011;37695;52.960;6.188;2023-05-20T08:08:50;4.13;;;1.65;;
51614;SDS011;37695;52.960;6.188;2023-05-20T08:11:18;2.60;;;1.42;;
51614;SDS011;37695;52.960;6.188;2023-05-20T08:13:45;2.53;;;1.60;;
51614;SDS011;37695;52.960;6.188;2023-05-20T08:16:11;2.72;;;1.65;;
51614;SDS011;37695;52.960;6.188;2023-05-20T08:18:37;3.22;;;1.80;;
51614;SDS011;37695;52.960;6.188;2023-05-20T08:21:03;3.35;;;1.50;;
51614;SDS011;37695;52.960;6.188;2023-05-20T08:23:31;2.97;;;1.60;;
51614;SDS011;37695;52.960;6.188;2023-05-20T08:25:57;6.45;;;1.70;;
51614;SDS011;37695;52.960;6.188;2023-05-20T08:28:26;5.60;;;1.63;;
51614;SDS011;37695;52.960;6.188;2023-05-20T08:30:52;4.50;;;1.98;;
51614;SDS011;37695;52.960;6.188;2023-05-20T08:33:17;3.10;;;1.80;;
51614;SDS011;37695;52.960;6.188;2023-05-20T08:35:45;5.57;;;1.70;;
51614;SDS011;37695;52.960;6.188;2023-05-20T08:38:11;2.80;;;1.70;;
51614;SDS011;37695;52.960;6.188;2023-05-20T08:40:37;3.80;;;1.60;;
51614;SDS011;37695;52.960;6.188;2023-05-20T08:43:02;3.65;;;1.98;;
51614;SDS011;37695;52.960;6.188;2023-05-20T08:45:30;3.17;;;1.80;;
51614;SDS011;37695;52.960;6.188;2023-05-20T08:47:57;2.65;;;1.67;;
51614;SDS011;37695;52.960;6.188;2023-05-20T08:50:23;5.25;;;1.75;;
51614;SDS011;37695;52.960;6.188;2023-05-20T08:52:49;3.30;;;1.75;;
51614;SDS011;37695;52.960;6.188;2023-05-20T08:55:16;2.13;;;1.60;;
51614;SDS011;37695;52.960;6.188;2023-05-20T08:57:54;3.20;;;1.90;;
51614;SDS011;37695;52.960;6.188;2023-05-20T09:00:21;4.05;;;1.75;;
51614;SDS011;37695;52.960;6.188;2023-05-20T09:02:52;2.50;;;1.65;;
51614;SDS011;37695;52.960;6.188;2023-05-20T09:05:19;2.22;;;1.40;;
51614;SDS011;37695;52.960;6.188;2023-05-20T09:07:45;3.58;;;1.67;;
51614;SDS011;37695;52.960;6.188;2023-05-20T09:10:11;3.53;;;1.52;;
51614;SDS011;37695;52.960;6.188;2023-05-20T09:12:37;3.50;;;1.73;;
51614;SDS011;37695;52.960;6.188;2023-05-20T09:15:03;3.28;;;1.67;;
51614;SDS011;37695;52.960;6.188;2023-05-20T09:17:29;3.85;;;1.90;;
51614;SDS011;37695;52.960;6.188;2023-05-20T09:19:55;2.22;;;1.65;;
51614;SDS011;37695;52.960;6.188;2023-05-20T09:22:21;3.97;;;1.83;;
51614;SDS011;37695;52.960;6.188;2023-05-20T09:24:51;4.60;;;2.00;;
51614;SDS011;37695;52.960;6.188;2023-05-20T09:27:20;3.33;;;1.80;;
51614;SDS011;37695;52.960;6.188;2023-05-20T09:29:46;3.28;;;1.60;;
51614;SDS011;37695;52.960;6.188;2023-05-20T09:32:12;3.95;;;1.90;;
51614;SDS011;37695;52.960;6.188;2023-05-20T09:34:39;3.28;;;1.70;;
51614;SDS011;37695;52.960;6.188;2023-05-20T09:37:07;2.65;;;1.52;;
51614;SDS011;37695;52.960;6.188;2023-05-20T09:39:35;3.83;;;1.98;;
51614;SDS011;37695;52.960;6.188;2023-05-20T09:42:34;3.15;;;1.45;;
51614;SDS011;37695;52.960;6.188;2023-05-20T09:45:06;2.75;;;1.60;;
51614;SDS011;37695;52.960;6.188;2023-05-20T09:47:37;3.85;;;1.50;;
51614;SDS011;37695;52.960;6.188;2023-05-20T09:50:05;3.63;;;2.05;;
51614;SDS011;37695;52.960;6.188;2023-05-20T09:52:33;3.75;;;1.90;;
51614;SDS011;37695;52.960;6.188;2023-05-20T09:55:01;3.28;;;1.70;;
51614;SDS011;37695;52.960;6.188;2023-05-20T09:57:29;4.53;;;1.80;;
51614;SDS011;37695;52.960;6.188;2023-05-20T09:59:58;2.78;;;1.85;;
51614;SDS011;37695;52.960;6.188;2023-05-20T10:02:23;3.50;;;1.80;;
51614;SDS011;37695;52.960;6.188;2023-05-20T10:04:50;4.22;;;1.90;;
51614;SDS011;37695;52.960;6.188;2023-05-20T10:12:43;3.10;;;2.00;;
51614;SDS011;37695;52.960;6.188;2023-05-20T10:15:22;9.50;;;2.05;;
51614;SDS011;37695;52.960;6.188;2023-05-20T10:20:25;3.38;;;1.90;;
51614;SDS011;37695;52.960;6.188;2023-05-20T10:22:54;4.30;;;2.40;;
51614;SDS011;37695;52.960;6.188;2023-05-20T10:25:24;3.53;;;2.00;;
51614;SDS011;37695;52.960;6.188;2023-05-20T10:28:03;3.92;;;1.80;;
51614;SDS011;37695;52.960;6.188;2023-05-20T10:30:32;3.10;;;1.73;;
51614;SDS011;37695;52.960;6.188;2023-05-20T10:33:01;2.55;;;1.83;;
51614;SDS011;37695;52.960;6.188;2023-05-20T10:35:28;3.00;;;1.60;;
51614;SDS011;37695;52.960;6.188;2023-05-20T10:38:05;4.75;;;1.77;;
51614;SDS011;37695;52.960;6.188;2023-05-20T10:40:35;3.78;;;1.85;;
51614;SDS011;37695;52.960;6.188;2023-05-20T10:43:10;4.30;;;2.05;;
51614;SDS011;37695;52.960;6.188;2023-05-20T10:45:49;5.63;;;1.92;;
51614;SDS011;37695;52.960;6.188;2023-05-20T10:48:19;4.70;;;2.05;;
51614;SDS011;37695;52.960;6.188;2023-05-20T10:50:45;3.65;;;1.95;;
51614;SDS011;37695;52.960;6.188;2023-05-20T10:53:12;3.05;;;1.80;;
51614;SDS011;37695;52.960;6.188;2023-05-20T10:55:38;3.03;;;2.10;;
51614;SDS011;37695;52.960;6.188;2023-05-20T10:58:05;4.30;;;1.90;;
51614;SDS011;37695;52.960;6.188;2023-05-20T11:00:34;4.80;;;2.22;;
51614;SDS011;37695;52.960;6.188;2023-05-20T11:03:01;3.30;;;1.70;;
51614;SDS011;37695;52.960;6.188;2023-05-20T11:05:28;4.90;;;2.20;;
51614;SDS011;37695;52.960;6.188;2023-05-20T11:08:01;3.33;;;1.90;;
51614;SDS011;37695;52.960;6.188;2023-05-20T11:10:28;4.37;;;1.80;;
51614;SDS011;37695;52.960;6.188;2023-05-20T11:12:55;3.70;;;1.90;;
51614;SDS011;37695;52.960;6.188;2023-05-20T11:15:21;4.95;;;1.90;;
51614;SDS011;37695;52.960;6.188;2023-05-20T11:17:51;4.68;;;1.90;;
51614;SDS011;37695;52.960;6.188;2023-05-20T11:20:18;3.58;;;2.00;;
51614;SDS011;37695;52.960;6.188;2023-05-20T11:22:43;3.03;;;1.85;;
51614;SDS011;37695;52.960;6.188;2023-05-20T11:25:09;4.43;;;1.83;;
51614;SDS011;37695;52.960;6.188;2023-05-20T11:27:38;2.55;;;1.70;;
51614;SDS011;37695;52.960;6.188;2023-05-20T11:30:04;3.95;;;1.73;;
51614;SDS011;37695;52.960;6.188;2023-05-20T11:32:30;4.35;;;1.80;;
51614;SDS011;37695;52.960;6.188;2023-05-20T11:34:56;3.50;;;1.88;;
51614;SDS011;37695;52.960;6.188;2023-05-20T11:37:22;3.17;;;2.05;;
51614;SDS011;37695;52.960;6.188;2023-05-20T11:39:48;3.92;;;2.03;;
51614;SDS011;37695;52.960;6.188;2023-05-20T11:42:33;6.30;;;1.92;;
51614;SDS011;37695;52.960;6.188;2023-05-20T11:45:00;5.53;;;1.90;;
51614;SDS011;37695;52.960;6.188;2023-05-20T11:47:26;2.90;;;1.80;;
51614;SDS011;37695;52.960;6.188;2023-05-20T11:49:51;2.47;;;1.70;;
51614;SDS011;37695;52.960;6.188;2023-05-20T11:52:17;3.95;;;1.90;;
51614;SDS011;37695;52.960;6.188;2023-05-20T11:54:42;2.47;;;1.58;;
51614;SDS011;37695;52.960;6.188;2023-05-20T11:57:09;3.60;;;2.05;;
51614;SDS011;37695;52.960;6.188;2023-05-20T11:59:35;2.85;;;1.63;;
51614;SDS011;37695;52.960;6.188;2023-05-20T12:02:01;2.50;;;1.73;;
51614;SDS011;37695;52.960;6.188;2023-05-20T12:04:27;3.33;;;1.65;;
51614;SDS011;37695;52.960;6.188;2023-05-20T12:06:52;10.27;;;1.70;;
51614;SDS011;37695;52.960;6.188;2023-05-20T12:09:18;3.72;;;2.00;;
51614;SDS011;37695;52.960;6.188;2023-05-20T12:11:44;2.90;;;1.88;;
51614;SDS011;37695;52.960;6.188;2023-05-20T12:14:09;4.40;;;1.70;;
51614;SDS011;37695;52.960;6.188;2023-05-20T12:16:35;3.45;;;1.83;;
51614;SDS011;37695;52.960;6.188;2023-05-20T12:19:02;4.20;;;1.92;;
51614;SDS011;37695;52.960;6.188;2023-05-20T12:21:28;3.83;;;2.05;;
51614;SDS011;37695;52.960;6.188;2023-05-20T12:23:55;3.90;;;1.90;;
51614;SDS011;37695;52.960;6.188;2023-05-20T12:26:24;3.80;;;1.90;;
51614;SDS011;37695;52.960;6.188;2023-05-20T12:28:51;3.03;;;1.58;;
51614;SDS011;37695;52.960;6.188;2023-05-20T12:31:17;3.00;;;1.65;;
51614;SDS011;37695;52.960;6.188;2023-05-20T12:33:42;4.05;;;1.90;;
51614;SDS011;37695;52.960;6.188;2023-05-20T12:36:08;3.35;;;1.63;;
51614;SDS011;37695;52.960;6.188;2023-05-20T12:38:34;5.40;;;1.60;;
51614;SDS011;37695;52.960;6.188;2023-05-20T12:41:00;4.28;;;1.75;;
51614;SDS011;37695;52.960;6.188;2023-05-20T12:43:26;3.85;;;1.95;;
51614;SDS011;37695;52.960;6.188;2023-05-20T12:45:51;3.17;;;1.58;;
51614;SDS011;37695;52.960;6.188;2023-05-20T12:48:17;4.25;;;1.80;;
51614;SDS011;37695;52.960;6.188;2023-05-20T12:50:43;2.75;;;1.52;;
51614;SDS011;37695;52.960;6.188;2023-05-20T12:53:08;8.88;;;1.92;;
51614;SDS011;37695;52.960;6.188;2023-05-20T12:55:34;4.47;;;1.85;;
51614;SDS011;37695;52.960;6.188;2023-05-20T12:58:00;3.17;;;1.75;;
51614;SDS011;37695;52.960;6.188;2023-05-20T13:00:25;10.13;;;2.05;;
51614;SDS011;37695;52.960;6.188;2023-05-20T13:02:51;2.30;;;1.58;;
51614;SDS011;37695;52.960;6.188;2023-05-20T13:05:16;2.70;;;1.60;;
51614;SDS011;37695;52.960;6.188;2023-05-20T13:07:42;5.32;;;1.65;;
51614;SDS011;37695;52.960;6.188;2023-05-20T13:10:08;3.95;;;1.83;;
51614;SDS011;37695;52.960;6.188;2023-05-20T13:12:35;3.05;;;1.60;;
51614;SDS011;37695;52.960;6.188;2023-05-20T13:15:02;2.65;;;1.67;;
51614;SDS011;37695;52.960;6.188;2023-05-20T13:17:28;2.63;;;1.73;;
51614;SDS011;37695;52.960;6.188;2023-05-20T13:19:54;3.38;;;1.80;;
51614;SDS011;37695;52.960;6.188;2023-05-20T13:22:20;3.15;;;1.70;;
51614;SDS011;37695;52.960;6.188;2023-05-20T13:24:45;5.93;;;2.22;;
51614;SDS011;37695;52.960;6.188;2023-05-20T13:27:11;2.22;;;1.38;;
51614;SDS011;37695;52.960;6.188;2023-05-20T13:29:36;2.50;;;1.60;;
51614;SDS011;37695;52.960;6.188;2023-05-20T13:32:02;4.22;;;1.65;;
51614;SDS011;37695;52.960;6.188;2023-05-20T13:34:28;4.30;;;1.58;;
51614;SDS011;37695;52.960;6.188;2023-05-20T13:36:54;3.13;;;1.73;;
51614;SDS011;37695;52.960;6.188;2023-05-20T13:39:20;3.22;;;1.70;;
51614;SDS011;37695;52.960;6.188;2023-05-20T13:41:45;3.03;;;1.88;;
51614;SDS011;37695;52.960;6.188;2023-05-20T13:44:11;4.95;;;2.22;;
51614;SDS011;37695;52.960;6.188;2023-05-20T13:46:36;4.25;;;2.00;;
51614;SDS011;37695;52.960;6.188;2023-05-20T13:49:02;4.95;;;1.90;;
51614;SDS011;37695;52.960;6.188;2023-05-20T13:51:28;5.05;;;1.75;;
51614;SDS011;37695;52.960;6.188;2023-05-20T13:53:54;9.27;;;2.22;;
51614;SDS011;37695;52.960;6.188;2023-05-20T13:56:20;4.97;;;1.92;;
51614;SDS011;37695;52.960;6.188;2023-05-20T13:58:46;3.88;;;1.80;;
51614;SDS011;37695;52.960;6.188;2023-05-20T14:01:12;4.30;;;2.20;;
51614;SDS011;37695;52.960;6.188;2023-05-20T14:03:39;4.28;;;2.10;;
51614;SDS011;37695;52.960;6.188;2023-05-20T14:06:05;3.63;;;1.75;;
51614;SDS011;37695;52.960;6.188;2023-05-20T14:08:31;5.07;;;2.00;;
51614;SDS011;37695;52.960;6.188;2023-05-20T14:10:56;3.60;;;1.88;;
51614;SDS011;37695;52.960;6.188;2023-05-20T14:13:22;3.65;;;2.00;;
51614;SDS011;37695;52.960;6.188;2023-05-20T14:15:49;7.25;;;2.17;;
51614;SDS011;37695;52.960;6.188;2023-05-20T14:18:15;3.05;;;1.92;;
51614;SDS011;37695;52.960;6.188;2023-05-20T14:20:41;3.70;;;1.80;;
51614;SDS011;37695;52.960;6.188;2023-05-20T14:23:07;3.95;;;2.15;;
51614;SDS011;37695;52.960;6.188;2023-05-20T14:25:33;3.55;;;2.00;;
51614;SDS011;37695;52.960;6.188;2023-05-20T14:27:58;3.50;;;2.13;;
51614;SDS011;37695;52.960;6.188;2023-05-20T14:30:24;4.63;;;2.22;;
51614;SDS011;37695;52.960;6.188;2023-05-20T14:32:50;3.42;;;1.65;;
51614;SDS011;37695;52.960;6.188;2023-05-20T14:35:16;4.35;;;1.92;;
51614;SDS011;37695;52.960;6.188;2023-05-20T14:37:42;3.58;;;1.95;;
51614;SDS011;37695;52.960;6.188;2023-05-20T14:40:08;4.60;;;2.38;;
51614;SDS011;37695;52.960;6.188;2023-05-20T14:42:34;5.03;;;2.08;;
51614;SDS011;37695;52.960;6.188;2023-05-20T14:45:00;4.95;;;2.40;;
51614;SDS011;37695;52.960;6.188;2023-05-20T14:47:26;3.47;;;2.08;;
51614;SDS011;37695;52.960;6.188;2023-05-20T14:49:51;4.82;;;2.28;;
51614;SDS011;37695;52.960;6.188;2023-05-20T14:52:17;3.58;;;2.15;;